Weather observations for the past three days for
Quantico Marine Corps Airfield - Turner Field
Metric (Imperial)
Date Time (edt) Wind (kph) Vis. (km) Weather Sky Cond. Temperature (ºC) Relative Humidity Wind Chill (°C) Heat Index (°C) Pressure Precipitation (cm)
Air Dwpt 6 hour altimeter (cm) sea level (mb) 1 hr 3 hr 6 hr
Max. Min.
02 07:56 NE 7 11.27 A Few Clouds FEW100 26.7 22.8 26.7 25 79% 29 76.35 1018.1
02 06:56 N 7 11.27 Fair CLR 25.6 22.2 82% 27 76.35 1017.8
02 05:56 N 9 14.48 Fair CLR 26.1 22.2 79% 28 76.33 1017.5
02 04:56 N 11 14.48 Fair CLR 25.6 22.2 82% 27 76.28 1017.1
02 03:56 W 9 12.87 Fair CLR 25 21.7 82% 26 76.3 1017.2
02 02:56 NW 7 12.87 Fair CLR 26.1 22.8 82% 28 76.28 1016.8
02 01:56 W 7 11.27 Fair CLR 26.1 23.9 32.2 26.1 88% 28 76.25 1016.6
02 00:56 Calm 12.87 Fair CLR 27.2 23.9 82% 30 76.25 1016.5
01 23:56 W 11 12.87 Fair CLR 27.2 24.4 85% 31 76.2 1016.1
01 21:56 W 9 12.87 Fair CLR 28.3 24.4 79% 33 76.15 1015.4
01 20:56 W 9 12.87 Fair CLR 30 23.9 70% 35 76.1 1014.7
01 19:56 SW 9 11.27 Fair CLR 32.2 22.2 37.2 32.2 56% 36 76.05 1014.0
01 18:56 Calm 11.27 Fair CLR 33.9 22.2 50% 38 76.07 1014.2
01 17:56 Calm 11.27 Partly Cloudy SCT100 35 21.7 46% 39 76.1 1014.6
01 16:56 Calm 11.27 A Few Clouds FEW080 36.7 21.1 40% 41 76.1 1014.7
01 15:56 Calm 11.27 Partly Cloudy SCT060 36.1 21.1 42% 40 76.12 1015.1
01 13:56 SE 11 11.27 Partly Cloudy FEW035 SCT080 34.4 24.4 34.4 25.6 56% 42 76.17 1015.8
01 11:56 SE 13 11.27 A Few Clouds FEW150 31.7 24.4 65% 38 76.28 1016.9
01 08:56 Calm 11.27 A Few Clouds FEW080 26.7 22.8 79% 29 76.35 1017.9
01 07:56 S 6 11.27 A Few Clouds FEW080 26.1 22.2 26.1 23.9 79% 28 76.33 1017.6
01 06:56 S 7 8.05 Fog/Mist CLR 24.4 22.2 88% 25 76.3 1017.3
01 05:56 S 6 11.27 Fair CLR 24.4 22.8 91% 24 76.28 1017.1
01 04:56 W 6 9.66 Fog/Mist CLR 23.9 23.3 96% 23 76.3 1017.3
01 03:56 W 6 9.66 Fog/Mist CLR 24.4 22.8 91% 24 76.3 1017.3
01 02:56 Calm 11.27 Fair CLR 25.6 22.8 85% 27 76.33 1017.6
01 01:56 Calm 11.27 Fair CLR 25.6 23.3 28.3 24.4 87% 27 76.35 1018.0
01 00:56 W 11 8.05 Fog/Mist CLR 25 23.9 94% 26 76.38 1018.5
31 23:56 Calm 8.05 Fog/Mist OVC095 25 23.9 94% 26 76.4 1018.7
31 22:56 W 7 9.66 Fog/Mist CLR 25.6 23.9 90% 27 76.4 1018.6
31 20:56 Calm 11.27 Fair CLR 27.2 24.4 85% 31 76.38 1018.3
31 18:56 SE 6 11.27 Overcast OVC080 28.9 25 80% 34 76.38 1018.3
31 17:56 NE 6 11.27 Overcast OVC080 30 22.8 65% 34 76.4 1018.6
31 16:56 Calm 11.27 Partly Cloudy FEW030 SCT090 31.1 22.2 59% 35 76.38 1018.3
31 14:56 Calm 11.27 A Few Clouds FEW035 FEW080 31.1 21.1 55% 34 76.43 1018.9
31 13:56 NE 7 11.27 Partly Cloudy FEW060 SCT120 31.7 22.8 31.7 22.8 59% 36 76.45 1019.3
31 12:56 Vrbl 11 11.27 Fair CLR 30.6 22.8 63% 35 76.48 1019.8
31 11:56 Vrbl 11 11.27 A Few Clouds FEW060 FEW120 30 23.3 67% 34 76.5 1019.9
31 10:56 N 6 11.27 A Few Clouds FEW120 28.3 22.8 72% 32 76.5 1019.9
31 09:56 NE 11 11.27 A Few Clouds FEW120 26.7 22.2 76% 29 76.48 1019.8
31 08:56 N 11 11.27 A Few Clouds FEW150 25.6 21.7 79% 27 76.5 1019.9
31 07:56 W 11 11.27 Fair CLR 22.8 20.6 22.8 21.7 87% 76.48 1019.6
31 04:56 W 11 11.27 Fair CLR 21.7 20.6 94% 76.4 1018.6
31 03:56 W 7 11.27 Fair CLR 22.2 21.1 94% 76.4 1018.6
31 02:56 W 7 11.27 Fair CLR 22.8 21.1 90% 76.38 1018.4
30 23:56 SW 6 12.87 Fair CLR 24.4 20 77% 25 76.43 1019.1
30 22:56 W 6 12.87 Fair CLR 24.4 21.1 82% 25 76.45 1019.5
30 21:56 W 7 12.87 Fair CLR 25.6 21.1 76% 27 76.48 1019.5
30 20:56 NW 6 14.48 A Few Clouds FEW120 26.7 19.4 64% 28 76.48 1019.6
30 19:56 SW 9 12.87 Overcast OVC110 27.8 20 32.2 27.8 63% 29 76.43 1019.1
30 18:56 S 11 11.27 Overcast OVC110 29.4 21.1 61% 32 76.43 1018.8
30 16:56 S 20 11.27 Fair CLR 31.7 22.8 59% 36 76.38 1018.4
30 13:56 S 17 11.27 Fair CLR 31.1 21.7 31.1 22.8 57% 34 76.58 1021.0
30 12:56 S 17 11.27 Mostly Cloudy SCT034 BKN070 30 21.7 61% 33 76.63 1021.8
30 10:56 S 17 9.66 Partly Cloudy with Haze SCT025 28.3 21.7 67% 31 76.68 1022.4
30 08:56 S 13 9.66 Mostly Cloudy with Haze BKN008 BKN016 24.4 21.7 85% 25 76.73 1023.2
Date Time (edt) Wind (kph) Vis. (km) Weather Sky Cond. Air Dwpt Max. Min. Relative Humidity Wind Chill (°C) Heat Index (°C) altimeter (cm) sea level (mb) 1 hr 3 hr 6 hr
6 hour
Temperature (ºC) Pressure Precipitation (cm)